createdAt,value
2022-10-22T00:01:20.260Z,6.92
2022-10-22T00:03:48.984Z,6.89
2022-10-22T00:06:17.100Z,6.87
2022-10-22T00:08:45.251Z,6.90
2022-10-22T00:11:14.817Z,6.89
2022-10-22T00:13:43.507Z,6.92
2022-10-22T00:16:13.708Z,6.89
2022-10-22T00:18:41.952Z,6.93
2022-10-22T00:21:10.605Z,6.88
2022-10-22T00:23:41.624Z,6.87
2022-10-22T00:26:09.786Z,6.76
2022-10-22T00:28:38.006Z,6.66
2022-10-22T00:31:07.190Z,6.65
2022-10-22T00:33:36.669Z,6.62
2022-10-22T00:36:04.990Z,6.56
2022-10-22T00:38:33.133Z,6.58
2022-10-22T00:43:30.183Z,6.58
2022-10-22T00:45:58.322Z,6.59
2022-10-22T00:48:29.520Z,6.53
2022-10-22T00:51:02.820Z,6.51
2022-10-22T00:53:36.472Z,6.52
2022-10-22T00:56:04.953Z,6.48
2022-10-22T00:58:37.888Z,6.47
2022-10-22T01:01:07.651Z,6.55
2022-10-22T01:03:35.852Z,6.59
2022-10-22T01:06:07.079Z,6.63
2022-10-22T01:08:44.885Z,6.65
2022-10-22T01:11:23.366Z,6.68
2022-10-22T01:13:59.258Z,6.55
2022-10-22T01:16:36.005Z,6.56
2022-10-22T01:19:26.849Z,6.55
2022-10-22T01:22:01.592Z,6.57
2022-10-22T01:24:43.245Z,6.46
2022-10-22T01:27:22.845Z,6.42
2022-10-22T01:29:59.364Z,6.39
2022-10-22T01:32:30.608Z,6.35
2022-10-22T01:35:03.841Z,6.34
2022-10-22T01:37:35.177Z,6.32
2022-10-22T01:40:03.983Z,6.33
2022-10-22T01:42:32.072Z,6.25
2022-10-22T01:45:01.532Z,6.23
2022-10-22T01:47:42.048Z,6.22
2022-10-22T01:50:31.795Z,6.23
2022-10-22T01:53:15.610Z,6.25
2022-10-22T01:55:53.538Z,6.18
2022-10-22T01:58:35.382Z,6.18
2022-10-22T02:01:15.274Z,6.23
2022-10-22T02:03:49.431Z,6.24
2022-10-22T02:06:21.937Z,6.15
2022-10-22T02:08:52.071Z,6.11
2022-10-22T02:11:20.332Z,6.13
2022-10-22T02:13:52.486Z,6.10
2022-10-22T02:16:28.807Z,6.06
2022-10-22T02:19:00.050Z,6.03
2022-10-22T02:21:29.141Z,6.00
2022-10-22T02:24:01.225Z,6.00
2022-10-22T02:26:36.008Z,5.99
2022-10-22T02:29:10.094Z,5.90
2022-10-22T02:31:51.922Z,5.87
2022-10-22T02:34:31.811Z,5.89
2022-10-22T02:37:01.470Z,5.85
2022-10-22T02:39:30.880Z,5.79
2022-10-22T02:41:59.623Z,5.78
2022-10-22T02:44:27.754Z,5.73
2022-10-22T02:46:57.327Z,5.72
2022-10-22T02:49:25.427Z,5.61
2022-10-22T02:51:53.682Z,5.51
2022-10-22T02:54:21.753Z,5.48
2022-10-22T02:56:49.800Z,5.44
2022-10-22T02:59:17.813Z,5.44
2022-10-22T03:01:47.092Z,5.42
2022-10-22T03:04:17.286Z,5.40
2022-10-22T03:06:45.410Z,5.36
2022-10-22T03:09:13.480Z,5.36
2022-10-22T03:11:41.591Z,5.39
2022-10-22T03:14:09.785Z,5.35
2022-10-22T03:16:37.830Z,5.36
2022-10-22T03:19:06.811Z,5.38
2022-10-22T03:21:40.297Z,5.40
2022-10-22T03:24:18.884Z,5.45
2022-10-22T03:26:48.484Z,5.36
2022-10-22T03:29:17.741Z,5.33
2022-10-22T03:31:45.794Z,5.50
2022-10-22T03:34:14.931Z,5.37
2022-10-22T03:36:44.845Z,5.29
2022-10-22T03:39:15.211Z,5.26
2022-10-22T03:41:44.483Z,5.27
2022-10-22T03:44:13.400Z,5.23
2022-10-22T03:46:41.767Z,5.24
2022-10-22T03:49:09.868Z,5.22
2022-10-22T03:51:38.037Z,5.20
2022-10-22T03:54:07.837Z,5.19
2022-10-22T03:56:36.041Z,5.21
2022-10-22T03:59:04.694Z,5.24
2022-10-22T04:01:33.250Z,5.18
2022-10-22T04:04:01.393Z,5.14
2022-10-22T04:06:30.695Z,5.13
2022-10-22T04:09:01.321Z,5.13
2022-10-22T04:11:30.991Z,5.16
2022-10-22T04:13:59.066Z,5.18
2022-10-22T04:16:31.038Z,5.20
2022-10-22T04:18:59.434Z,5.17
2022-10-22T04:21:27.596Z,5.22
2022-10-22T04:23:55.805Z,5.17
2022-10-22T04:26:23.823Z,5.19
2022-10-22T04:28:54.005Z,5.14
2022-10-22T04:31:24.880Z,5.18
2022-10-22T04:33:56.261Z,5.22
2022-10-22T04:36:25.299Z,5.27
2022-10-22T04:38:56.665Z,5.18
2022-10-22T04:41:27.098Z,5.12
2022-10-22T04:43:57.968Z,5.13
2022-10-22T04:46:27.982Z,5.16
2022-10-22T04:48:56.435Z,5.18
2022-10-22T04:51:26.523Z,5.18
2022-10-22T04:53:55.088Z,5.10
2022-10-22T04:56:26.743Z,5.07
2022-10-22T04:58:59.077Z,5.12
2022-10-22T05:01:29.649Z,5.19
2022-10-22T05:04:00.787Z,5.09
2022-10-22T05:06:31.560Z,5.07
2022-10-22T05:09:01.230Z,5.06
2022-10-22T05:11:33.660Z,5.17
2022-10-22T05:14:05.133Z,5.17
2022-10-22T05:16:34.745Z,5.13
2022-10-22T05:19:05.008Z,5.13
2022-10-22T05:21:33.515Z,5.28
2022-10-22T05:24:02.466Z,5.32
2022-10-22T05:26:31.054Z,5.30
2022-10-22T05:28:59.147Z,5.18
2022-10-22T05:31:30.941Z,5.22
2022-10-22T05:33:59.274Z,5.23
2022-10-22T05:36:27.507Z,5.25
2022-10-22T05:38:55.799Z,5.41
2022-10-22T05:41:25.820Z,5.48
2022-10-22T05:43:56.861Z,5.57
2022-10-22T05:46:29.772Z,5.65
2022-10-22T05:48:59.673Z,5.81
2022-10-22T05:51:29.706Z,5.95
2022-10-22T05:54:00.690Z,6.00
2022-10-22T05:56:32.017Z,6.12
2022-10-22T06:01:36.553Z,6.39
2022-10-22T06:04:06.742Z,6.59
2022-10-22T06:06:36.864Z,6.65
2022-10-22T06:09:08.147Z,6.62
2022-10-22T06:11:36.562Z,6.62
2022-10-22T06:14:05.691Z,6.75
2022-10-22T06:16:35.617Z,6.70
2022-10-22T06:19:04.161Z,6.69
2022-10-22T06:21:33.074Z,6.76
2022-10-22T06:24:02.478Z,6.83
2022-10-22T06:26:31.884Z,6.96
2022-10-22T06:29:00.356Z,7.10
2022-10-22T06:31:28.990Z,7.26
2022-10-22T06:33:59.182Z,7.44
2022-10-22T06:36:27.331Z,7.60
2022-10-22T06:38:57.047Z,7.82
2022-10-22T06:41:28.633Z,8.13
2022-10-22T06:43:58.830Z,8.19
2022-10-22T06:46:27.638Z,8.39
2022-10-22T06:48:59.666Z,8.45
2022-10-22T06:51:29.360Z,8.64
2022-10-22T06:53:59.345Z,8.70
2022-10-22T06:56:28.962Z,8.93
2022-10-22T06:58:58.949Z,8.90
2022-10-22T07:01:29.728Z,8.93
2022-10-22T07:03:58.864Z,8.99
2022-10-22T07:06:30.725Z,9.13
2022-10-22T07:09:01.613Z,9.12
2022-10-22T07:11:40.251Z,9.27
2022-10-22T07:14:08.896Z,9.49
2022-10-22T07:16:37.905Z,9.71
2022-10-22T07:19:07.687Z,9.92
2022-10-22T07:21:37.373Z,9.88
2022-10-22T07:24:08.119Z,9.77
2022-10-22T07:26:37.495Z,9.72
2022-10-22T07:29:06.134Z,9.75
2022-10-22T07:31:34.334Z,9.75
2022-10-22T07:34:02.579Z,9.83
2022-10-22T07:36:30.771Z,9.94
2022-10-22T07:39:01.914Z,10.12
2022-10-22T07:41:31.359Z,10.21
2022-10-22T07:44:00.110Z,10.38
2022-10-22T07:46:28.348Z,10.44
2022-10-22T07:48:57.168Z,10.34
2022-10-22T07:51:25.285Z,10.51
2022-10-22T07:53:53.460Z,10.48
2022-10-22T07:56:23.576Z,10.60
2022-10-22T07:58:51.781Z,10.62
2022-10-22T08:01:20.151Z,10.76
2022-10-22T08:03:52.669Z,10.73
2022-10-22T08:06:22.695Z,10.77
2022-10-22T08:08:51.339Z,10.95
2022-10-22T08:11:19.422Z,11.01
2022-10-22T08:13:48.939Z,11.09
2022-10-22T08:16:22.970Z,11.22
2022-10-22T08:18:58.162Z,11.32
2022-10-22T08:21:36.284Z,11.36
2022-10-22T08:24:16.019Z,11.32
2022-10-22T08:26:46.148Z,11.50
2022-10-22T08:29:28.685Z,11.44
2022-10-22T08:31:59.926Z,11.59
2022-10-22T08:34:52.781Z,11.86
2022-10-22T08:37:30.021Z,11.97
2022-10-22T08:40:07.189Z,12.07
2022-10-22T08:43:03.508Z,12.01
2022-10-22T08:46:34.490Z,12.04
2022-10-22T08:49:06.604Z,12.34
2022-10-22T08:51:40.571Z,12.35
2022-10-22T08:54:20.506Z,12.55
2022-10-22T08:57:00.077Z,12.69
2022-10-22T08:59:36.442Z,12.75
2022-10-22T09:02:18.320Z,12.70
2022-10-22T09:04:58.188Z,12.72
2022-10-22T09:07:26.625Z,12.93
2022-10-22T09:09:57.926Z,12.90
2022-10-22T09:12:28.945Z,13.18
2022-10-22T09:14:57.560Z,13.27
2022-10-22T09:17:34.022Z,13.47
2022-10-22T09:20:10.834Z,13.63
2022-10-22T09:22:46.902Z,13.97
2022-10-22T09:25:27.496Z,14.03
2022-10-22T09:27:58.698Z,14.20
2022-10-22T09:30:29.854Z,14.39
2022-10-22T09:33:03.546Z,14.60
2022-10-22T09:35:35.525Z,14.75
2022-10-22T09:38:09.702Z,14.72
2022-10-22T09:40:45.471Z,14.85
2022-10-22T09:43:15.957Z,14.91
2022-10-22T09:45:45.080Z,14.97
2022-10-22T09:48:21.058Z,15.20
2022-10-22T09:50:56.348Z,15.24
2022-10-22T09:53:28.421Z,15.23
2022-10-22T09:55:59.414Z,15.12
2022-10-22T09:58:30.241Z,15.11
2022-10-22T10:01:00.600Z,14.94
2022-10-22T10:03:32.207Z,14.90
2022-10-22T10:06:05.904Z,14.78
2022-10-22T10:08:34.914Z,14.79
2022-10-22T10:11:10.131Z,14.76
2022-10-22T10:13:47.919Z,14.85
2022-10-22T10:16:30.416Z,14.95
2022-10-22T10:19:11.216Z,14.82
2022-10-22T10:21:52.387Z,14.94
2022-10-22T10:24:29.870Z,15.02
2022-10-22T10:27:03.931Z,15.10
2022-10-22T10:29:47.343Z,15.10
2022-10-22T10:32:31.323Z,15.09
2022-10-22T10:35:13.451Z,15.11
2022-10-22T10:37:48.551Z,15.25
2022-10-22T10:40:28.245Z,15.53
2022-10-22T10:43:02.136Z,15.81
2022-10-22T10:45:39.164Z,15.69
2022-10-22T10:48:23.690Z,15.67
2022-10-22T10:51:01.392Z,15.65
2022-10-22T10:53:46.170Z,15.86
2022-10-22T10:56:34.491Z,15.94
2022-10-22T10:59:17.763Z,15.99
2022-10-22T11:01:57.939Z,15.95
2022-10-22T11:04:45.501Z,16.06
2022-10-22T11:07:30.392Z,16.03
2022-10-22T11:10:11.164Z,15.94
2022-10-22T11:12:48.855Z,15.97
2022-10-22T11:15:25.182Z,16.05
2022-10-22T11:17:58.005Z,16.13
2022-10-22T11:20:34.272Z,16.16
2022-10-22T11:23:23.303Z,16.30
2022-10-22T11:25:52.895Z,16.42
2022-10-22T11:28:25.043Z,16.24
2022-10-22T11:30:59.468Z,16.33
2022-10-22T11:33:41.109Z,16.51
2022-10-22T11:36:11.548Z,16.62
2022-10-22T11:38:49.160Z,16.63
2022-10-22T11:41:23.296Z,16.68
2022-10-22T11:44:07.422Z,16.97
2022-10-22T11:46:47.756Z,17.19
2022-10-22T11:49:24.908Z,17.50
2022-10-22T11:52:23.054Z,17.53
2022-10-22T11:54:57.292Z,17.56
2022-10-22T11:57:37.536Z,17.61
2022-10-22T12:00:13.958Z,17.60
2022-10-22T12:02:49.402Z,17.60
2022-10-22T12:05:46.085Z,17.66
2022-10-22T12:08:26.932Z,17.82
2022-10-22T12:11:40.657Z,18.20
2022-10-22T12:14:29.928Z,18.20
2022-10-22T12:17:00.463Z,18.31
2022-10-22T12:19:32.430Z,18.39
2022-10-22T12:22:07.688Z,18.57
2022-10-22T12:24:45.192Z,18.63
2022-10-22T12:27:27.048Z,18.78
2022-10-22T12:30:01.328Z,18.63
2022-10-22T12:32:35.475Z,18.66
2022-10-22T12:35:07.094Z,18.52
2022-10-22T12:37:37.609Z,18.47
2022-10-22T12:40:18.278Z,18.57
2022-10-22T12:42:51.343Z,18.53
2022-10-22T12:45:21.654Z,18.49
2022-10-22T12:47:51.592Z,18.46
2022-10-22T12:50:22.307Z,18.52
2022-10-22T12:52:50.978Z,18.50
2022-10-22T12:55:21.778Z,18.48
2022-10-22T12:57:50.635Z,18.46
2022-10-22T13:00:29.506Z,18.25
2022-10-22T13:03:01.621Z,18.24
2022-10-22T13:05:38.949Z,18.18
2022-10-22T13:08:11.533Z,18.30
2022-10-22T13:10:41.492Z,18.30
2022-10-22T13:13:35.253Z,18.43
2022-10-22T13:16:21.864Z,18.53
2022-10-22T13:18:50.021Z,18.69
2022-10-22T13:21:27.708Z,18.66
2022-10-22T13:23:58.268Z,18.58
2022-10-22T13:26:32.559Z,18.63
2022-10-22T13:29:04.035Z,18.74
2022-10-22T13:31:37.921Z,18.79
2022-10-22T13:34:11.841Z,18.71
2022-10-22T13:36:41.407Z,18.70
2022-10-22T13:39:17.177Z,18.69
2022-10-22T13:41:45.310Z,18.68
2022-10-22T13:44:14.738Z,18.67
2022-10-22T13:46:43.730Z,18.63
2022-10-22T13:49:16.658Z,18.57
2022-10-22T13:51:45.001Z,18.49
2022-10-22T13:54:18.315Z,18.44
2022-10-22T13:56:48.808Z,18.37
2022-10-22T13:59:21.308Z,18.33
2022-10-22T14:01:52.213Z,18.31
2022-10-22T14:04:20.293Z,18.28
2022-10-22T14:06:48.376Z,18.27
2022-10-22T14:09:17.423Z,18.30
2022-10-22T14:11:45.522Z,18.28
2022-10-22T14:14:17.193Z,18.27
2022-10-22T14:16:48.290Z,18.24
2022-10-22T14:19:19.142Z,18.21
2022-10-22T14:21:49.985Z,18.19
2022-10-22T14:24:19.679Z,18.16
2022-10-22T14:26:47.910Z,18.24
2022-10-22T14:29:16.049Z,18.39
2022-10-22T14:31:46.353Z,18.24
2022-10-22T14:34:17.227Z,18.15
2022-10-22T14:36:46.087Z,18.16
2022-10-22T14:39:15.127Z,18.06
2022-10-22T14:41:43.971Z,18.05
2022-10-22T14:44:14.513Z,18.02
2022-10-22T14:46:44.620Z,17.94
2022-10-22T14:49:14.370Z,17.96
2022-10-22T14:51:45.419Z,17.90
2022-10-22T14:54:13.630Z,17.84
2022-10-22T14:56:41.656Z,17.77
2022-10-22T14:59:09.946Z,17.77
2022-10-22T15:01:42.959Z,17.67
2022-10-22T15:04:11.350Z,17.58
2022-10-22T15:06:40.839Z,17.52
2022-10-22T15:09:09.261Z,17.45
2022-10-22T15:11:37.561Z,17.41
2022-10-22T15:14:05.787Z,17.30
2022-10-22T15:16:33.874Z,17.24
2022-10-22T15:19:02.211Z,17.16
2022-10-22T15:21:30.339Z,17.09
2022-10-22T15:24:01.038Z,17.05
2022-10-22T15:26:29.334Z,16.98
2022-10-22T15:28:58.396Z,16.92
2022-10-22T15:31:46.919Z,16.88
2022-10-22T15:34:19.024Z,16.82
2022-10-22T15:36:47.100Z,16.75
2022-10-22T15:39:17.270Z,16.69
2022-10-22T15:41:47.012Z,16.66
2022-10-22T15:44:17.623Z,16.58
2022-10-22T15:46:45.867Z,16.53
2022-10-22T15:49:14.609Z,16.45
2022-10-22T15:51:42.683Z,16.34
2022-10-22T15:54:15.196Z,16.26
2022-10-22T15:56:45.487Z,16.23
2022-10-22T15:59:15.679Z,16.21
2022-10-22T16:01:44.747Z,16.19
2022-10-22T16:04:13.266Z,16.13
2022-10-22T16:06:43.134Z,16.05
2022-10-22T16:09:14.107Z,16.03
2022-10-22T16:11:42.828Z,15.95
2022-10-22T16:14:14.879Z,15.84
2022-10-22T16:16:44.970Z,15.73
2022-10-22T16:19:14.313Z,15.61
2022-10-22T16:21:42.507Z,15.51
2022-10-22T16:24:12.169Z,15.40
2022-10-22T16:26:40.320Z,15.29
2022-10-22T16:29:08.591Z,15.21
2022-10-22T16:31:38.086Z,15.13
2022-10-22T16:34:06.241Z,15.08
2022-10-22T16:36:36.052Z,15.02
2022-10-22T16:39:04.969Z,14.95
2022-10-22T16:41:36.547Z,14.89
2022-10-22T16:44:06.570Z,14.83
2022-10-22T16:46:40.214Z,14.75
2022-10-22T16:49:09.231Z,14.71
2022-10-22T16:51:37.854Z,14.63
2022-10-22T16:54:09.700Z,14.59
2022-10-22T16:56:40.411Z,14.53
2022-10-22T16:59:09.098Z,14.46
2022-10-22T17:01:41.202Z,14.41
2022-10-22T17:04:10.166Z,14.36
2022-10-22T17:06:38.844Z,14.29
2022-10-22T17:09:07.202Z,14.22
2022-10-22T17:11:42.702Z,14.16
2022-10-22T17:14:14.186Z,14.09
2022-10-22T17:16:44.957Z,14.01
2022-10-22T17:19:16.341Z,13.96
2022-10-22T17:21:44.913Z,13.92
2022-10-22T17:24:13.265Z,13.87
2022-10-22T17:26:41.538Z,13.81
2022-10-22T17:29:09.679Z,13.76
2022-10-22T17:31:39.022Z,13.69
2022-10-22T17:34:11.521Z,13.63
2022-10-22T17:36:41.385Z,13.60
2022-10-22T17:39:10.195Z,13.57
2022-10-22T17:42:05.496Z,13.53
2022-10-22T17:47:29.974Z,13.45
2022-10-22T17:54:24.053Z,13.41
2022-10-22T18:03:44.156Z,13.18
2022-10-22T18:07:16.606Z,13.07
2022-10-22T18:09:44.876Z,12.99
2022-10-22T18:12:15.403Z,12.92
2022-10-22T18:14:44.267Z,12.88
2022-10-22T18:19:49.331Z,12.78
2022-10-22T18:22:17.582Z,12.72
2022-10-22T18:24:46.031Z,12.71
2022-10-22T18:27:14.706Z,12.77
2022-10-22T18:29:42.771Z,12.78
2022-10-22T18:32:13.171Z,12.67
2022-10-22T18:34:43.111Z,12.57
2022-10-22T18:37:13.211Z,12.46
2022-10-22T18:39:41.513Z,12.41
2022-10-22T18:42:09.817Z,12.37
2022-10-22T18:44:38.184Z,12.32
2022-10-22T18:47:06.422Z,12.27
2022-10-22T18:49:35.421Z,12.22
2022-10-22T18:52:05.355Z,12.21
2022-10-22T18:54:33.638Z,12.16
2022-10-22T18:57:03.247Z,12.09
2022-10-22T18:59:33.010Z,12.03
2022-10-22T19:02:01.491Z,12.00
2022-10-22T19:04:36.670Z,12.00
2022-10-22T19:09:36.007Z,12.04
2022-10-22T19:12:05.541Z,11.99
2022-10-22T19:14:34.897Z,11.93
2022-10-22T19:17:06.473Z,11.89
2022-10-22T19:19:34.811Z,11.86
2022-10-22T19:22:02.804Z,11.81
2022-10-22T19:24:34.293Z,11.77
2022-10-22T19:27:02.676Z,11.83
2022-10-22T19:29:30.809Z,11.89
2022-10-22T19:31:59.154Z,11.90
2022-10-22T19:34:27.283Z,11.97
2022-10-22T19:36:55.361Z,11.85
2022-10-22T19:39:23.528Z,11.78
2022-10-22T19:41:53.115Z,11.70
2022-10-22T19:44:21.515Z,11.68
2022-10-22T19:46:49.834Z,11.67
2022-10-22T19:49:21.975Z,11.64
2022-10-22T19:51:53.598Z,11.60
2022-10-22T19:54:21.768Z,11.53
2022-10-22T19:56:51.190Z,11.48
2022-10-22T19:59:22.818Z,11.52
2022-10-22T20:01:51.069Z,11.57
2022-10-22T20:04:20.763Z,11.55
2022-10-22T20:06:48.916Z,11.51
2022-10-22T20:09:17.929Z,11.45
2022-10-22T20:11:46.177Z,11.46
2022-10-22T20:14:15.150Z,11.48
2022-10-22T20:16:44.846Z,11.53
2022-10-22T20:19:16.426Z,11.67
2022-10-22T20:21:45.771Z,11.58
2022-10-22T20:24:14.266Z,11.49
2022-10-22T20:26:42.457Z,11.45
2022-10-22T20:29:11.628Z,11.29
2022-10-22T20:31:39.679Z,11.19
2022-10-22T20:34:10.383Z,11.16
2022-10-22T20:36:38.475Z,11.21
2022-10-22T20:39:09.001Z,11.18
2022-10-22T20:41:40.483Z,11.13
2022-10-22T20:44:12.336Z,11.21
2022-10-22T20:46:40.562Z,11.16
2022-10-22T20:49:12.539Z,11.08
2022-10-22T20:51:40.817Z,11.05
2022-10-22T20:54:09.720Z,11.01
2022-10-22T20:56:39.197Z,10.91
2022-10-22T20:59:10.753Z,10.80
2022-10-22T21:01:40.348Z,10.73
2022-10-22T21:04:10.061Z,10.67
2022-10-22T21:06:40.492Z,10.65
2022-10-22T21:09:10.378Z,10.59
2022-10-22T21:11:40.583Z,10.55
2022-10-22T21:14:10.319Z,10.53
2022-10-22T21:16:42.187Z,10.50
2022-10-22T21:19:11.728Z,10.70
2022-10-22T21:21:39.812Z,10.55
2022-10-22T21:24:08.557Z,10.47
2022-10-22T21:26:38.593Z,10.41
2022-10-22T21:29:06.885Z,10.36
2022-10-22T21:31:36.533Z,10.37
2022-10-22T21:34:05.028Z,10.37
2022-10-22T21:36:34.579Z,10.36
2022-10-22T21:39:03.292Z,10.32
2022-10-22T21:41:31.363Z,10.28
2022-10-22T21:43:59.967Z,10.31
2022-10-22T21:46:31.731Z,10.29
2022-10-22T21:49:02.112Z,10.29
2022-10-22T21:51:49.843Z,10.28
2022-10-22T21:54:19.371Z,10.21
2022-10-22T21:56:49.081Z,10.18
2022-10-22T21:59:17.122Z,10.14
2022-10-22T22:01:45.264Z,10.09
2022-10-22T22:04:14.652Z,10.09
2022-10-22T22:06:42.833Z,10.06
2022-10-22T22:09:10.884Z,10.08
2022-10-22T22:11:40.371Z,10.10
2022-10-22T22:14:08.425Z,10.10
2022-10-22T22:16:36.566Z,10.09
2022-10-22T22:19:07.460Z,10.14
2022-10-22T22:21:39.222Z,10.20
2022-10-22T22:24:08.906Z,10.24
2022-10-22T22:26:37.729Z,10.21
2022-10-22T22:29:07.300Z,10.17
2022-10-22T22:31:37.494Z,10.17
2022-10-22T22:34:11.287Z,10.20
2022-10-22T22:36:42.118Z,10.15
2022-10-22T22:39:12.943Z,10.11
2022-10-22T22:41:41.235Z,10.00
2022-10-22T22:44:10.791Z,9.92
2022-10-22T22:46:38.931Z,9.86
2022-10-22T22:49:07.162Z,9.82
2022-10-22T22:51:35.707Z,9.88
2022-10-22T22:54:03.879Z,10.03
2022-10-22T22:56:34.545Z,10.00
2022-10-22T22:59:03.382Z,10.01
2022-10-22T23:01:34.648Z,10.09
2022-10-22T23:04:04.217Z,10.01
2022-10-22T23:06:34.831Z,9.97
2022-10-22T23:09:03.961Z,9.90
2022-10-22T23:11:32.095Z,9.88
2022-10-22T23:14:02.039Z,9.87
2022-10-22T23:16:33.335Z,9.81
2022-10-22T23:19:01.833Z,9.79
2022-10-22T23:21:31.917Z,9.74
2022-10-22T23:24:01.874Z,9.83
2022-10-22T23:26:32.655Z,10.04
2022-10-22T23:29:02.624Z,10.15
2022-10-22T23:31:32.269Z,10.06
2022-10-22T23:34:01.281Z,10.05
2022-10-22T23:36:30.106Z,9.96
2022-10-22T23:38:58.245Z,9.91
2022-10-22T23:41:26.274Z,9.99
2022-10-22T23:43:54.391Z,10.07
2022-10-22T23:46:22.360Z,10.05
2022-10-22T23:48:53.786Z,9.96
2022-10-22T23:51:22.386Z,9.91
2022-10-22T23:53:55.991Z,9.89
2022-10-22T23:56:24.322Z,10.05
2022-10-22T23:58:53.470Z,9.91
